Time;durP1;ratioP1;P1;durP2;ratioP2;P2;SDS_P1;SDS_P2;PMS_P1;PMS_P2;Temp;Humidity;BMP_temperature;BMP_pressure;BME280_temperature;BME280_humidity;BME280_pressure;Samples;Min_cycle;Max_cycle;Signal;HPM_P1;HPM_P2
2023/12/14 00:00:12;;;;;;;8.30;4.00;;;;;;;;;;5036406;28;20116;-65
2023/12/14 00:02:38;;;;;;;8.47;4.90;;;;;;;;;;5037638;28;20115;-66
2023/12/14 00:05:03;;;;;;;9.80;5.20;;;;;;;;;;5038205;28;20410;-65
2023/12/14 00:07:28;;;;;;;8.80;4.63;;;;;;;;;;5035942;28;20033;-66
2023/12/14 00:09:53;;;;;;;9.23;4.90;;;;;;;;;;5035181;28;20071;-65
2023/12/14 00:12:19;;;;;;;10.53;5.00;;;;;;;;;;5034269;28;20072;-65
2023/12/14 00:14:44;;;;;;;8.10;4.30;;;;;;;;;;5035242;28;20032;-66
2023/12/14 00:17:09;;;;;;;9.00;4.90;;;;;;;;;;5035217;28;20117;-65
2023/12/14 00:19:34;;;;;;;9.43;5.33;;;;;;;;;;5033030;28;20115;-65
2023/12/14 00:22:00;;;;;;;9.00;4.90;;;;;;;;;;5039867;28;20036;-65
2023/12/14 00:24:25;;;;;;;12.27;5.23;;;;;;;;;;5031028;28;20044;-67
2023/12/14 00:26:50;;;;;;;10.53;5.13;;;;;;;;;;5035664;28;20029;-65
2023/12/14 00:29:15;;;;;;;9.30;4.60;;;;;;;;;;5030532;28;20774;-65
2023/12/14 00:31:41;;;;;;;9.17;5.10;;;;;;;;;;5030442;28;20113;-65
2023/12/14 00:34:06;;;;;;;10.00;4.60;;;;;;;;;;5028630;28;20106;-65
2023/12/14 00:36:32;;;;;;;10.27;5.67;;;;;;;;;;5033585;28;20033;-66
2023/12/14 00:38:57;;;;;;;11.37;6.10;;;;;;;;;;5032458;28;20043;-66
2023/12/14 00:41:23;;;;;;;9.67;5.57;;;;;;;;;;5027996;28;20120;-65
2023/12/14 00:43:48;;;;;;;13.67;7.43;;;;;;;;;;5027671;28;20069;-65
2023/12/14 00:46:13;;;;;;;13.80;7.00;;;;;;;;;;5030958;28;20091;-66
2023/12/14 00:48:38;;;;;;;12.90;7.03;;;;;;;;;;5038139;28;20017;-65
2023/12/14 00:51:04;;;;;;;14.93;7.40;;;;;;;;;;5031044;28;20037;-67
2023/12/14 00:53:29;;;;;;;13.67;7.87;;;;;;;;;;5019305;28;20099;-66
2023/12/14 00:55:54;;;;;;;15.40;8.30;;;;;;;;;;5041248;28;20078;-66
2023/12/14 00:58:20;;;;;;;12.67;7.03;;;;;;;;;;5033637;28;20033;-65
2023/12/14 01:00:45;;;;;;;14.20;8.17;;;;;;;;;;5036299;28;20044;-66
2023/12/14 01:03:11;;;;;;;14.40;7.57;;;;;;;;;;5032046;28;20453;-65
2023/12/14 01:05:36;;;;;;;13.57;7.90;;;;;;;;;;5038045;28;20108;-66
2023/12/14 01:08:01;;;;;;;14.03;7.70;;;;;;;;;;5036132;28;20037;-66
2023/12/14 01:10:26;;;;;;;14.23;8.00;;;;;;;;;;5034168;28;20217;-66
2023/12/14 01:12:52;;;;;;;14.03;8.20;;;;;;;;;;5035840;28;20034;-65
2023/12/14 01:15:17;;;;;;;12.87;7.27;;;;;;;;;;5034756;28;20049;-63
2023/12/14 01:17:42;;;;;;;13.97;7.90;;;;;;;;;;5034664;28;20041;-63
2023/12/14 01:20:08;;;;;;;13.90;8.17;;;;;;;;;;5036213;28;20494;-61
2023/12/14 01:22:33;;;;;;;14.10;8.30;;;;;;;;;;5034174;28;20754;-61
2023/12/14 01:24:59;;;;;;;15.10;8.60;;;;;;;;;;5033745;28;20037;-62
2023/12/14 01:27:24;;;;;;;14.47;8.47;;;;;;;;;;5032009;28;20489;-62
2023/12/14 01:29:49;;;;;;;14.13;8.43;;;;;;;;;;5036893;28;20244;-62
2023/12/14 01:32:15;;;;;;;16.63;8.97;;;;;;;;;;5033304;28;20470;-62
2023/12/14 01:34:40;;;;;;;15.13;8.57;;;;;;;;;;5032596;28;20040;-62
2023/12/14 01:37:05;;;;;;;16.07;8.93;;;;;;;;;;5034800;28;20072;-62
2023/12/14 01:39:30;;;;;;;15.93;8.57;;;;;;;;;;5033100;28;20038;-62
2023/12/14 01:41:56;;;;;;;15.60;8.13;;;;;;;;;;5030963;28;20044;-62
2023/12/14 01:44:21;;;;;;;15.80;8.83;;;;;;;;;;5035289;28;20089;-62
2023/12/14 01:46:46;;;;;;;14.77;8.93;;;;;;;;;;5034184;28;20045;-61
2023/12/14 01:49:12;;;;;;;11.20;5.60;;;;;;;;;;5029146;28;20032;-63
2023/12/14 01:51:37;;;;;;;8.80;4.50;;;;;;;;;;5027781;28;20110;-63
2023/12/14 01:54:02;;;;;;;12.37;6.83;;;;;;;;;;5035307;28;20495;-62
2023/12/14 01:56:27;;;;;;;9.93;5.77;;;;;;;;;;5030555;28;20072;-62
2023/12/14 01:58:53;;;;;;;10.50;5.60;;;;;;;;;;5031499;28;20046;-62
2023/12/14 02:01:34;;;;;;;10.57;5.73;;;;;;;;;;5034631;28;20412;-63
2023/12/14 02:03:59;;;;;;;;;;;;;;;;;;5035347;28;20401;-63
2023/12/14 02:06:25;;;;;;;10.43;5.50;;;;;;;;;;5038047;28;20261;-62
2023/12/14 02:08:50;;;;;;;11.63;5.50;;;;;;;;;;5033692;28;20116;-61
2023/12/14 02:11:15;;;;;;;9.93;5.03;;;;;;;;;;5035275;28;20034;-64
2023/12/14 02:13:41;;;;;;;8.30;4.73;;;;;;;;;;5034994;28;20044;-65
2023/12/14 02:16:06;;;;;;;10.47;6.17;;;;;;;;;;5035706;28;20041;-65
2023/12/14 02:18:31;;;;;;;9.20;5.20;;;;;;;;;;5038370;28;20037;-63
2023/12/14 02:20:57;;;;;;;10.70;5.83;;;;;;;;;;5038144;28;20116;-63
2023/12/14 02:23:22;;;;;;;10.03;5.50;;;;;;;;;;5038230;28;20037;-63
2023/12/14 02:25:47;;;;;;;12.40;7.10;;;;;;;;;;5037766;28;20250;-65
2023/12/14 02:28:12;;;;;;;11.13;6.80;;;;;;;;;;5034124;28;20237;-64
2023/12/14 02:30:37;;;;;;;12.80;6.80;;;;;;;;;;5035487;28;20029;-63
2023/12/14 02:33:03;;;;;;;10.97;6.67;;;;;;;;;;5038457;28;20040;-63
2023/12/14 02:35:28;;;;;;;12.23;7.10;;;;;;;;;;5036820;28;20056;-63
2023/12/14 02:37:53;;;;;;;12.10;6.80;;;;;;;;;;5034268;28;20037;-63
2023/12/14 02:40:19;;;;;;;12.83;7.60;;;;;;;;;;5036306;28;20026;-64
2023/12/14 02:42:44;;;;;;;13.03;7.60;;;;;;;;;;5034540;28;20488;-65
2023/12/14 02:45:09;;;;;;;14.73;8.20;;;;;;;;;;5036820;28;20405;-65
2023/12/14 02:47:35;;;;;;;12.87;6.60;;;;;;;;;;5034481;28;20025;-65
2023/12/14 02:50:00;;;;;;;11.80;6.37;;;;;;;;;;5032102;28;20029;-63
2023/12/14 02:52:25;;;;;;;10.87;6.53;;;;;;;;;;5034088;28;20304;-64
2023/12/14 02:54:51;;;;;;;10.97;6.50;;;;;;;;;;5040039;28;20032;-64
2023/12/14 02:57:16;;;;;;;11.00;6.57;;;;;;;;;;5034333;28;20494;-64
2023/12/14 02:59:41;;;;;;;11.50;6.17;;;;;;;;;;5032462;28;20033;-64
2023/12/14 03:02:06;;;;;;;12.03;6.77;;;;;;;;;;5032738;28;20033;-65
2023/12/14 03:04:32;;;;;;;12.53;6.53;;;;;;;;;;5035991;28;20108;-62
2023/12/14 03:06:57;;;;;;;10.33;6.30;;;;;;;;;;5037324;28;20036;-65
2023/12/14 03:09:22;;;;;;;12.27;7.00;;;;;;;;;;5031881;28;20029;-63
2023/12/14 03:11:48;;;;;;;11.80;6.47;;;;;;;;;;5041013;28;20124;-64
2023/12/14 03:14:13;;;;;;;11.37;6.23;;;;;;;;;;5038496;28;20540;-64
2023/12/14 03:16:38;;;;;;;12.87;5.97;;;;;;;;;;5038272;28;20125;-64
2023/12/14 03:19:03;;;;;;;10.60;6.10;;;;;;;;;;5036602;28;20037;-63
2023/12/14 03:21:29;;;;;;;10.07;5.30;;;;;;;;;;5035882;28;20028;-63
2023/12/14 03:23:54;;;;;;;10.13;6.30;;;;;;;;;;5036716;28;20037;-65
2023/12/14 03:26:20;;;;;;;11.60;6.10;;;;;;;;;;5035873;28;20033;-64
2023/12/14 03:28:45;;;;;;;12.07;5.90;;;;;;;;;;5036859;28;20033;-64
2023/12/14 03:31:12;;;;;;;10.23;5.80;;;;;;;;;;5034219;28;20155;-64
2023/12/14 03:33:37;;;;;;;9.40;5.40;;;;;;;;;;5033826;28;20082;-64
2023/12/14 03:36:03;;;;;;;9.37;5.07;;;;;;;;;;5033929;28;22160;-65
2023/12/14 03:38:28;;;;;;;10.70;5.43;;;;;;;;;;5037732;28;20028;-63
2023/12/14 03:40:53;;;;;;;9.73;5.07;;;;;;;;;;5032361;28;20029;-63
2023/12/14 03:43:18;;;;;;;9.90;5.10;;;;;;;;;;5037351;28;20033;-65
2023/12/14 03:45:44;;;;;;;10.77;5.10;;;;;;;;;;5034778;28;20030;-64
2023/12/14 03:48:10;;;;;;;10.73;5.13;;;;;;;;;;5033379;28;20430;-63
2023/12/14 03:50:35;;;;;;;9.70;5.40;;;;;;;;;;5032259;28;20174;-62
2023/12/14 03:53:00;;;;;;;10.77;5.60;;;;;;;;;;5019728;28;20160;-63
2023/12/14 03:55:25;;;;;;;9.57;5.53;;;;;;;;;;5034130;28;20416;-63
2023/12/14 03:57:51;;;;;;;10.97;5.70;;;;;;;;;;5035275;28;20501;-64
2023/12/14 04:00:16;;;;;;;11.97;6.00;;;;;;;;;;5037205;28;20110;-64
2023/12/14 04:02:41;;;;;;;24.47;6.70;;;;;;;;;;5037052;28;20048;-64
2023/12/14 04:05:08;;;;;;;14.50;6.00;;;;;;;;;;5038063;28;20037;-64
2023/12/14 04:07:35;;;;;;;10.70;5.73;;;;;;;;;;5029808;28;20056;-64
2023/12/14 04:10:01;;;;;;;10.93;5.47;;;;;;;;;;5028276;28;20421;-64
2023/12/14 04:12:26;;;;;;;16.27;6.57;;;;;;;;;;5030535;28;20033;-64
2023/12/14 04:14:51;;;;;;;11.63;5.20;;;;;;;;;;5035585;28;20375;-64
2023/12/14 04:17:16;;;;;;;9.13;4.97;;;;;;;;;;5034143;28;20319;-63
2023/12/14 04:19:42;;;;;;;11.47;4.73;;;;;;;;;;5032261;28;20032;-64
2023/12/14 04:22:07;;;;;;;7.80;4.23;;;;;;;;;;5034914;28;20044;-64
2023/12/14 04:24:32;;;;;;;7.53;4.07;;;;;;;;;;5030846;28;20519;-65
2023/12/14 04:26:58;;;;;;;7.33;4.10;;;;;;;;;;5037804;28;20116;-64
2023/12/14 04:29:23;;;;;;;9.07;4.67;;;;;;;;;;5030591;28;20123;-64
2023/12/14 04:31:48;;;;;;;9.40;3.83;;;;;;;;;;5030269;28;20039;-64
2023/12/14 04:34:15;;;;;;;10.07;4.80;;;;;;;;;;5036841;28;20103;-63
2023/12/14 04:36:41;;;;;;;8.80;4.70;;;;;;;;;;5036557;28;20025;-63
2023/12/14 04:39:07;;;;;;;8.77;4.17;;;;;;;;;;5032161;28;20029;-63
2023/12/14 04:41:32;;;;;;;8.53;4.33;;;;;;;;;;5033619;28;20690;-64
2023/12/14 04:43:57;;;;;;;8.77;4.30;;;;;;;;;;5033293;28;20470;-63
2023/12/14 04:46:22;;;;;;;9.00;4.47;;;;;;;;;;5037312;28;20243;-64
2023/12/14 04:48:48;;;;;;;7.47;4.20;;;;;;;;;;5030994;28;20029;-62
2023/12/14 04:51:13;;;;;;;9.90;4.40;;;;;;;;;;5034640;28;20040;-64
2023/12/14 04:53:38;;;;;;;7.67;4.20;;;;;;;;;;5033884;28;20123;-63
2023/12/14 04:56:04;;;;;;;7.77;4.07;;;;;;;;;;5031346;28;20094;-63
2023/12/14 04:58:29;;;;;;;10.57;4.63;;;;;;;;;;5036741;28;20112;-66
2023/12/14 05:00:54;;;;;;;9.77;4.57;;;;;;;;;;5033049;28;20554;-67
2023/12/14 05:03:19;;;;;;;8.50;4.00;;;;;;;;;;5033849;28;20079;-66
2023/12/14 05:05:45;;;;;;;20.87;4.77;;;;;;;;;;5029656;28;20026;-66
2023/12/14 05:08:10;;;;;;;7.90;4.40;;;;;;;;;;5035863;28;20108;-67
2023/12/14 05:10:35;;;;;;;10.23;4.40;;;;;;;;;;5035769;28;20030;-66
2023/12/14 05:13:00;;;;;;;11.03;4.40;;;;;;;;;;5034729;28;20465;-67
2023/12/14 05:15:26;;;;;;;8.03;4.80;;;;;;;;;;5031155;28;20056;-66
2023/12/14 05:17:51;;;;;;;7.63;4.33;;;;;;;;;;5030142;28;20234;-67
2023/12/14 05:20:16;;;;;;;9.67;4.90;;;;;;;;;;5036429;28;20061;-66
2023/12/14 05:22:41;;;;;;;9.60;4.37;;;;;;;;;;5031408;28;20043;-66
2023/12/14 05:25:07;;;;;;;9.63;5.10;;;;;;;;;;5035125;28;20384;-66
2023/12/14 05:27:32;;;;;;;12.07;4.80;;;;;;;;;;5028816;28;20029;-66
2023/12/14 05:29:57;;;;;;;12.43;5.03;;;;;;;;;;5017493;28;20033;-66
2023/12/14 05:32:23;;;;;;;8.50;4.67;;;;;;;;;;5035256;28;20497;-66
2023/12/14 05:34:48;;;;;;;8.60;4.67;;;;;;;;;;5032255;28;20037;-66
2023/12/14 05:37:13;;;;;;;7.80;4.70;;;;;;;;;;5029765;28;20057;-66
2023/12/14 05:39:40;;;;;;;9.13;5.00;;;;;;;;;;5034338;28;20032;-66
2023/12/14 05:42:06;;;;;;;9.80;5.23;;;;;;;;;;5032986;28;20067;-66
2023/12/14 05:44:31;;;;;;;8.20;4.80;;;;;;;;;;5031589;28;20068;-66
2023/12/14 05:46:56;;;;;;;8.33;4.70;;;;;;;;;;5038312;28;20041;-66
2023/12/14 05:49:22;;;;;;;9.03;4.63;;;;;;;;;;5037892;28;20072;-66
2023/12/14 05:51:47;;;;;;;8.67;5.23;;;;;;;;;;5038315;28;20386;-66
2023/12/14 05:54:12;;;;;;;8.93;4.80;;;;;;;;;;5037443;28;20033;-66
2023/12/14 05:56:37;;;;;;;9.03;5.10;;;;;;;;;;5036460;28;20036;-66
2023/12/14 05:59:03;;;;;;;8.30;5.00;;;;;;;;;;5039341;28;20037;-67
2023/12/14 06:01:28;;;;;;;9.23;4.93;;;;;;;;;;5038694;28;20041;-66
2023/12/14 06:03:54;;;;;;;10.07;5.37;;;;;;;;;;5036442;28;20068;-65
2023/12/14 06:06:19;;;;;;;8.97;4.90;;;;;;;;;;5039567;28;20464;-65
2023/12/14 06:08:45;;;;;;;9.80;5.10;;;;;;;;;;5038454;28;20696;-65
2023/12/14 06:11:10;;;;;;;10.50;5.43;;;;;;;;;;5036482;28;20030;-65
2023/12/14 06:13:35;;;;;;;9.53;4.87;;;;;;;;;;5038643;28;20120;-64
2023/12/14 06:16:01;;;;;;;8.80;5.30;;;;;;;;;;5034999;28;20379;-65
2023/12/14 06:18:27;;;;;;;9.43;5.13;;;;;;;;;;5037542;28;20049;-65
2023/12/14 06:20:53;;;;;;;8.87;4.90;;;;;;;;;;5036407;28;20036;-64
2023/12/14 06:23:18;;;;;;;8.17;4.50;;;;;;;;;;5035785;28;21970;-64
2023/12/14 06:25:43;;;;;;;9.13;4.80;;;;;;;;;;5036494;28;20041;-64
2023/12/14 06:28:09;;;;;;;8.63;4.77;;;;;;;;;;5039707;28;20079;-64
2023/12/14 06:30:34;;;;;;;9.20;4.70;;;;;;;;;;5037034;28;20028;-64
2023/12/14 06:32:59;;;;;;;6.50;3.93;;;;;;;;;;5033933;28;20410;-64
2023/12/14 06:35:24;;;;;;;11.00;4.50;;;;;;;;;;5037031;28;20231;-64
2023/12/14 06:37:50;;;;;;;7.50;4.30;;;;;;;;;;5031869;28;20034;-64
2023/12/14 06:40:15;;;;;;;9.43;4.27;;;;;;;;;;5037429;28;20033;-64
2023/12/14 06:42:42;;;;;;;7.77;4.10;;;;;;;;;;5037039;28;20044;-65
2023/12/14 06:45:07;;;;;;;10.23;4.57;;;;;;;;;;5032182;28;20494;-65
2023/12/14 06:47:33;;;;;;;8.90;4.30;;;;;;;;;;5035134;28;20037;-66
2023/12/14 06:49:58;;;;;;;10.20;4.80;;;;;;;;;;5037355;28;20051;-66
2023/12/14 06:52:23;;;;;;;8.60;4.80;;;;;;;;;;5035600;28;20478;-66
2023/12/14 06:54:48;;;;;;;9.60;5.00;;;;;;;;;;5034600;28;20049;-66
2023/12/14 06:57:14;;;;;;;8.57;4.90;;;;;;;;;;5032724;28;20034;-65
2023/12/14 06:59:39;;;;;;;7.83;4.60;;;;;;;;;;5032339;28;20519;-66
2023/12/14 07:02:04;;;;;;;9.67;4.73;;;;;;;;;;5035143;28;20048;-66
2023/12/14 07:04:30;;;;;;;8.83;4.87;;;;;;;;;;5033792;28;20033;-66
2023/12/14 07:06:55;;;;;;;8.70;4.80;;;;;;;;;;5035930;28;20571;-66
2023/12/14 07:09:20;;;;;;;9.53;4.50;;;;;;;;;;5036219;28;20032;-65
2023/12/14 07:11:46;;;;;;;10.10;4.77;;;;;;;;;;5032334;28;20029;-65
2023/12/14 07:14:11;;;;;;;9.63;5.30;;;;;;;;;;5035483;28;20553;-66
2023/12/14 07:16:37;;;;;;;9.13;4.37;;;;;;;;;;5035081;28;20067;-65
2023/12/14 07:19:02;;;;;;;7.20;3.90;;;;;;;;;;5036022;28;20060;-62
2023/12/14 07:21:27;;;;;;;9.97;4.93;;;;;;;;;;5034025;28;20045;-64
2023/12/14 07:23:52;;;;;;;7.03;3.77;;;;;;;;;;5034466;28;20034;-64
2023/12/14 07:26:18;;;;;;;6.70;3.70;;;;;;;;;;5035161;28;20090;-64
2023/12/14 07:28:43;;;;;;;9.63;3.87;;;;;;;;;;5034836;28;20120;-62
2023/12/14 07:31:08;;;;;;;7.33;3.73;;;;;;;;;;5035813;28;20038;-63
2023/12/14 07:33:35;;;;;;;7.27;3.67;;;;;;;;;;5031866;28;20068;-64
2023/12/14 07:36:00;;;;;;;7.60;3.50;;;;;;;;;;5034150;28;20030;-63
2023/12/14 07:38:25;;;;;;;7.90;3.87;;;;;;;;;;5036017;28;20045;-64
2023/12/14 07:40:52;;;;;;;7.57;4.07;;;;;;;;;;5039602;28;20041;-64
2023/12/14 07:43:17;;;;;;;7.83;4.20;;;;;;;;;;5034270;28;20063;-64
2023/12/14 07:45:42;;;;;;;7.87;4.20;;;;;;;;;;5029309;28;20233;-64
2023/12/14 07:48:07;;;;;;;6.40;3.60;;;;;;;;;;5038166;28;20033;-65
2023/12/14 07:50:33;;;;;;;8.87;4.00;;;;;;;;;;5036549;28;20069;-63
2023/12/14 07:52:58;;;;;;;8.63;4.20;;;;;;;;;;5035133;28;20041;-64
2023/12/14 07:55:23;;;;;;;12.10;4.73;;;;;;;;;;5031730;28;20481;-63
2023/12/14 07:57:49;;;;;;;9.17;4.60;;;;;;;;;;5037548;28;20189;-64
2023/12/14 08:00:15;;;;;;;11.67;4.97;;;;;;;;;;5037854;28;20041;-63
2023/12/14 08:02:41;;;;;;;10.67;5.40;;;;;;;;;;5031981;28;20048;-64
2023/12/14 08:05:07;;;;;;;13.40;5.87;;;;;;;;;;5032363;28;20480;-65
2023/12/14 08:07:32;;;;;;;11.63;5.17;;;;;;;;;;5033577;28;20057;-64
2023/12/14 08:09:58;;;;;;;13.87;6.10;;;;;;;;;;5035279;28;20037;-64
2023/12/14 08:12:24;;;;;;;14.67;6.03;;;;;;;;;;5034393;28;20063;-63
2023/12/14 08:14:49;;;;;;;12.33;5.80;;;;;;;;;;5031834;28;20050;-63
2023/12/14 08:17:14;;;;;;;16.77;6.93;;;;;;;;;;5035209;28;20670;-65
2023/12/14 08:19:39;;;;;;;15.97;6.80;;;;;;;;;;5031155;28;20048;-65
2023/12/14 08:22:05;;;;;;;16.47;7.07;;;;;;;;;;5035864;28;20482;-64
2023/12/14 08:24:30;;;;;;;18.27;7.37;;;;;;;;;;5031277;28;20040;-64
2023/12/14 08:26:55;;;;;;;17.70;7.47;;;;;;;;;;5036164;28;20025;-64
2023/12/14 08:29:22;;;;;;;15.47;7.97;;;;;;;;;;5033497;28;20040;-63
2023/12/14 08:31:47;;;;;;;19.10;7.70;;;;;;;;;;5032337;28;20374;-63
2023/12/14 08:34:13;;;;;;;18.80;8.53;;;;;;;;;;5034742;28;20043;-65
2023/12/14 08:36:38;;;;;;;20.60;8.17;;;;;;;;;;5034570;28;20037;-63
2023/12/14 08:39:03;;;;;;;20.53;8.90;;;;;;;;;;5032135;28;20128;-64
2023/12/14 08:41:28;;;;;;;20.07;8.87;;;;;;;;;;5031919;28;20037;-65
2023/12/14 08:43:55;;;;;;;25.10;9.50;;;;;;;;;;5035065;28;20098;-63
2023/12/14 08:46:20;;;;;;;23.80;8.93;;;;;;;;;;5035726;28;20103;-64
2023/12/14 08:48:46;;;;;;;23.57;9.67;;;;;;;;;;5034222;28;20417;-63
2023/12/14 08:51:12;;;;;;;24.57;9.90;;;;;;;;;;5035269;28;20095;-62
2023/12/14 08:53:37;;;;;;;20.47;9.37;;;;;;;;;;5027312;28;20495;-65
2023/12/14 08:56:03;;;;;;;21.67;9.33;;;;;;;;;;5037893;28;20086;-64
2023/12/14 08:58:29;;;;;;;24.10;9.43;;;;;;;;;;5032650;28;20033;-65
2023/12/14 09:00:54;;;;;;;22.60;9.23;;;;;;;;;;5034087;28;20032;-64
2023/12/14 09:03:20;;;;;;;20.37;9.20;;;;;;;;;;5032703;28;20467;-63
2023/12/14 09:05:45;;;;;;;20.20;9.80;;;;;;;;;;5036127;28;20060;-65
2023/12/14 09:08:11;;;;;;;20.80;9.47;;;;;;;;;;5034013;28;20053;-63
2023/12/14 09:10:37;;;;;;;20.17;9.47;;;;;;;;;;5031765;28;20470;-63
2023/12/14 09:13:04;;;;;;;21.77;9.97;;;;;;;;;;5030999;28;20034;-63
2023/12/14 09:15:29;;;;;;;21.50;9.23;;;;;;;;;;5033630;28;20118;-62
2023/12/14 09:17:54;;;;;;;24.77;9.33;;;;;;;;;;5034381;28;20665;-63
2023/12/14 09:20:20;;;;;;;25.80;10.33;;;;;;;;;;5034838;28;20243;-63
2023/12/14 09:22:45;;;;;;;21.47;9.40;;;;;;;;;;5034396;28;20793;-64
2023/12/14 09:25:10;;;;;;;26.00;9.17;;;;;;;;;;5036461;28;20197;-63
2023/12/14 09:27:36;;;;;;;19.63;8.13;;;;;;;;;;5038021;28;20111;-64
2023/12/14 09:30:01;;;;;;;20.60;8.23;;;;;;;;;;5038941;28;20080;-64
2023/12/14 09:32:26;;;;;;;22.63;9.40;;;;;;;;;;5038057;28;20556;-63
2023/12/14 09:34:56;;;;;;;21.47;9.10;;;;;;;;;;5038106;28;20505;-64
2023/12/14 09:37:21;;;;;;;20.83;8.70;;;;;;;;;;5037458;28;20225;-64
2023/12/14 09:39:46;;;;;;;17.73;8.27;;;;;;;;;;5035278;28;20436;-65
2023/12/14 09:42:14;;;;;;;20.73;8.23;;;;;;;;;;5040091;28;20452;-63
2023/12/14 09:44:40;;;;;;;20.00;7.97;;;;;;;;;;5037517;28;20433;-63
2023/12/14 09:47:05;;;;;;;20.57;8.97;;;;;;;;;;5036810;28;20029;-64
2023/12/14 09:49:32;;;;;;;21.47;8.90;;;;;;;;;;5035355;28;20120;-63
2023/12/14 09:51:57;;;;;;;20.30;9.30;;;;;;;;;;5034173;28;20535;-64
2023/12/14 09:54:23;;;;;;;18.47;8.30;;;;;;;;;;5035543;28;20047;-63
2023/12/14 09:56:48;;;;;;;16.70;7.70;;;;;;;;;;5036537;28;20394;-63
2023/12/14 09:59:14;;;;;;;20.53;8.30;;;;;;;;;;5037631;28;20425;-63
2023/12/14 10:01:39;;;;;;;15.10;7.40;;;;;;;;;;5031200;28;20034;-64
2023/12/14 10:04:08;;;;;;;21.17;7.30;;;;;;;;;;5034431;28;20038;-65
2023/12/14 10:06:33;;;;;;;16.97;7.80;;;;;;;;;;5035746;28;20470;-64
2023/12/14 10:08:59;;;;;;;18.57;8.07;;;;;;;;;;5035277;28;20029;-63
2023/12/14 10:11:24;;;;;;;20.50;7.67;;;;;;;;;;5037143;28;20128;-64
2023/12/14 10:13:49;;;;;;;17.40;7.70;;;;;;;;;;5038998;28;20033;-63
2023/12/14 10:16:30;;;;;;;18.73;7.37;;;;;;;;;;5035973;28;20049;-64
2023/12/14 10:18:57;;;;;;;16.35;7.30;;;;;;;;;;5037042;28;20542;-64
2023/12/14 10:21:22;;;;;;;17.40;7.07;;;;;;;;;;5035873;28;20040;-63
2023/12/14 10:23:48;;;;;;;15.73;7.97;;;;;;;;;;5037244;28;20038;-64
2023/12/14 10:26:14;;;;;;;19.20;7.60;;;;;;;;;;5036352;28;20025;-64
2023/12/14 10:28:39;;;;;;;17.57;7.63;;;;;;;;;;5037407;28;20041;-64
2023/12/14 10:31:05;;;;;;;17.93;8.70;;;;;;;;;;5035373;28;20029;-63
2023/12/14 10:33:30;;;;;;;20.30;8.67;;;;;;;;;;5035031;28;20029;-63
2023/12/14 10:35:56;;;;;;;19.20;8.33;;;;;;;;;;5037391;28;20037;-64
2023/12/14 10:38:24;;;;;;;17.83;7.67;;;;;;;;;;5039020;28;20033;-63
2023/12/14 10:40:50;;;;;;;16.63;8.33;;;;;;;;;;5037950;28;20433;-63
2023/12/14 10:43:15;;;;;;;19.07;8.23;;;;;;;;;;5036841;28;20068;-63
2023/12/14 10:45:43;;;;;;;18.03;8.67;;;;;;;;;;5035632;28;20497;-64
2023/12/14 10:48:09;;;;;;;18.83;7.67;;;;;;;;;;5034945;28;20497;-66
2023/12/14 10:50:36;;;;;;;15.93;7.60;;;;;;;;;;5037656;28;20025;-66
2023/12/14 10:53:03;;;;;;;16.50;7.83;;;;;;;;;;5037570;28;20037;-66
2023/12/14 10:55:33;;;;;;;19.03;8.37;;;;;;;;;;5036650;28;20037;-66
2023/12/14 10:57:58;;;;;;;16.83;8.37;;;;;;;;;;5031228;28;20032;-66
2023/12/14 11:00:23;;;;;;;21.90;8.47;;;;;;;;;;5034835;28;20398;-66
2023/12/14 11:02:49;;;;;;;18.93;9.23;;;;;;;;;;5038580;28;20042;-66
2023/12/14 11:05:16;;;;;;;21.17;9.13;;;;;;;;;;5032012;28;20033;-65
2023/12/14 11:07:53;;;;;;;18.73;9.03;;;;;;;;;;5031522;28;20041;-66
2023/12/14 11:10:39;;;;;;;19.43;9.37;;;;;;;;;;5037625;28;20035;-67
2023/12/14 11:13:10;;;;;;;26.03;9.63;;;;;;;;;;5038239;28;20029;-66
2023/12/14 11:15:35;;;;;;;20.00;8.48;;;;;;;;;;5036597;28;20106;-66
2023/12/14 11:18:09;;;;;;;20.80;10.67;;;;;;;;;;5037341;28;20113;-67
2023/12/14 11:20:44;;;;;;;22.20;9.53;;;;;;;;;;5030388;28;20398;-66
2023/12/14 11:23:10;;;;;;;22.03;10.30;;;;;;;;;;5039829;28;20043;-66
2023/12/14 11:25:35;;;;;;;28.60;11.40;;;;;;;;;;5036398;28;20029;-68
2023/12/14 11:28:04;;;;;;;27.63;12.10;;;;;;;;;;5035006;28;20029;-67
2023/12/14 11:30:30;;;;;;;26.73;11.63;;;;;;;;;;5033003;28;20037;-67
2023/12/14 11:32:55;;;;;;;28.37;12.20;;;;;;;;;;5035478;28;20407;-66
2023/12/14 11:35:20;;;;;;;25.97;11.87;;;;;;;;;;5036326;28;20348;-67
2023/12/14 11:37:46;;;;;;;28.07;12.67;;;;;;;;;;5036473;28;20390;-67
2023/12/14 11:40:13;;;;;;;26.80;11.93;;;;;;;;;;5032214;28;20037;-66
2023/12/14 11:42:39;;;;;;;30.37;12.83;;;;;;;;;;5030309;28;20029;-67
2023/12/14 11:45:04;;;;;;;25.20;11.23;;;;;;;;;;5032605;28;20024;-67
2023/12/14 11:47:30;;;;;;;28.63;11.50;;;;;;;;;;5034024;28;20108;-66
2023/12/14 11:49:55;;;;;;;29.33;12.73;;;;;;;;;;5034688;28;20025;-67
2023/12/14 11:52:21;;;;;;;24.63;10.57;;;;;;;;;;5037011;28;20040;-67
2023/12/14 11:54:47;;;;;;;26.40;12.53;;;;;;;;;;5033639;28;20037;-66
2023/12/14 11:57:12;;;;;;;27.07;13.00;;;;;;;;;;5033511;28;20143;-67
2023/12/14 11:59:38;;;;;;;28.77;12.37;;;;;;;;;;5033047;28;20065;-65
2023/12/14 12:02:03;;;;;;;27.40;11.07;;;;;;;;;;5038909;28;20043;-65
2023/12/14 12:04:28;;;;;;;23.40;11.30;;;;;;;;;;5033744;28;20466;-65
2023/12/14 12:07:01;;;;;;;25.30;12.03;;;;;;;;;;5033213;28;20075;-65
2023/12/14 12:09:42;;;;;;;25.97;11.37;;;;;;;;;;5031867;28;20549;-65
2023/12/14 12:12:09;;;;;;;26.92;11.52;;;;;;;;;;5036499;28;20033;-65
2023/12/14 12:14:35;;;;;;;27.17;11.53;;;;;;;;;;5031936;28;20034;-65
2023/12/14 12:17:00;;;;;;;25.80;11.13;;;;;;;;;;5031663;28;22025;-65
2023/12/14 12:19:25;;;;;;;24.77;10.67;;;;;;;;;;5030903;28;20037;-65
2023/12/14 12:21:51;;;;;;;24.10;10.53;;;;;;;;;;5037548;28;20045;-65
2023/12/14 12:24:16;;;;;;;27.47;11.93;;;;;;;;;;5033153;28;20052;-65
2023/12/14 12:26:41;;;;;;;24.80;10.77;;;;;;;;;;5032950;28;20037;-65
2023/12/14 12:29:07;;;;;;;25.10;10.90;;;;;;;;;;5034077;28;20123;-65
2023/12/14 12:31:33;;;;;;;21.17;10.37;;;;;;;;;;5033824;28;20025;-65
2023/12/14 12:33:58;;;;;;;18.87;9.87;;;;;;;;;;5030010;28;20033;-64
2023/12/14 12:36:23;;;;;;;21.33;10.03;;;;;;;;;;5032537;28;20032;-64
2023/12/14 12:38:49;;;;;;;22.97;10.67;;;;;;;;;;5029951;28;20069;-64
2023/12/14 12:41:14;;;;;;;21.30;10.07;;;;;;;;;;5035527;28;20037;-64
2023/12/14 12:43:39;;;;;;;23.70;10.63;;;;;;;;;;5035151;28;20040;-65
2023/12/14 12:46:04;;;;;;;24.30;10.93;;;;;;;;;;5034074;28;20063;-64
2023/12/14 12:48:30;;;;;;;22.40;10.60;;;;;;;;;;5033621;28;20433;-64
2023/12/14 12:50:55;;;;;;;22.47;10.57;;;;;;;;;;5034982;28;20026;-64
2023/12/14 12:53:20;;;;;;;21.07;10.23;;;;;;;;;;5033078;28;20103;-64
2023/12/14 12:55:46;;;;;;;22.33;10.50;;;;;;;;;;5034422;28;20041;-64
2023/12/14 12:58:11;;;;;;;23.13;11.30;;;;;;;;;;5033757;28;20041;-65
2023/12/14 13:00:37;;;;;;;25.57;11.73;;;;;;;;;;5036715;28;20108;-64
2023/12/14 13:03:03;;;;;;;23.30;11.67;;;;;;;;;;5032661;28;20033;-64
2023/12/14 13:05:28;;;;;;;27.93;12.60;;;;;;;;;;5035288;28;20056;-64
2023/12/14 13:07:54;;;;;;;27.00;11.90;;;;;;;;;;5034576;28;20029;-64
2023/12/14 13:10:25;;;;;;;29.47;13.43;;;;;;;;;;5033022;28;20056;-62
2023/12/14 13:12:50;;;;;;;30.00;14.07;;;;;;;;;;5033581;28;20085;-62
2023/12/14 13:15:16;;;;;;;32.87;14.50;;;;;;;;;;5032678;28;20501;-62
2023/12/14 13:17:41;;;;;;;28.17;13.43;;;;;;;;;;5034366;28;20109;-63
2023/12/14 13:20:07;;;;;;;32.93;14.17;;;;;;;;;;5033589;28;20032;-64
2023/12/14 13:22:32;;;;;;;31.73;14.00;;;;;;;;;;5033406;28;20036;-64
2023/12/14 13:24:58;;;;;;;34.43;15.00;;;;;;;;;;5034371;28;20041;-65
2023/12/14 13:27:24;;;;;;;37.23;15.93;;;;;;;;;;5027934;28;20119;-65
2023/12/14 13:29:50;;;;;;;31.93;15.10;;;;;;;;;;5034582;28;20028;-65
2023/12/14 13:32:15;;;;;;;34.77;14.07;;;;;;;;;;5031511;28;20040;-64
2023/12/14 13:34:41;;;;;;;34.17;14.17;;;;;;;;;;5034706;28;20178;-64
2023/12/14 13:37:08;;;;;;;34.30;14.50;;;;;;;;;;5027757;28;20029;-64
2023/12/14 13:39:37;;;;;;;34.13;14.53;;;;;;;;;;5032640;28;20040;-64
2023/12/14 13:42:03;;;;;;;30.30;13.60;;;;;;;;;;5031263;28;20718;-63
2023/12/14 13:44:28;;;;;;;29.03;12.77;;;;;;;;;;5031147;28;20125;-63
2023/12/14 13:46:53;;;;;;;28.37;11.53;;;;;;;;;;5027789;28;20034;-63
2023/12/14 13:49:19;;;;;;;27.97;11.47;;;;;;;;;;5032468;28;20429;-64
2023/12/14 13:51:44;;;;;;;23.50;10.53;;;;;;;;;;5036878;28;20025;-64
2023/12/14 13:54:09;;;;;;;21.33;10.00;;;;;;;;;;5033849;28;20091;-64
2023/12/14 13:56:34;;;;;;;21.57;10.23;;;;;;;;;;5029730;28;20039;-64
2023/12/14 13:59:00;;;;;;;23.83;11.10;;;;;;;;;;5030782;28;20041;-63
2023/12/14 14:01:25;;;;;;;26.13;10.90;;;;;;;;;;5033031;28;20041;-63
2023/12/14 14:03:50;;;;;;;21.47;9.63;;;;;;;;;;5031549;28;20048;-64
2023/12/14 14:06:16;;;;;;;26.23;10.03;;;;;;;;;;5033710;28;20025;-64
2023/12/14 14:08:41;;;;;;;25.57;10.23;;;;;;;;;;5036956;28;20486;-64
2023/12/14 14:11:06;;;;;;;21.97;9.87;;;;;;;;;;5035645;28;20038;-64
2023/12/14 14:13:32;;;;;;;20.43;9.33;;;;;;;;;;5034874;28;20443;-64
2023/12/14 14:15:58;;;;;;;24.60;10.37;;;;;;;;;;5037271;28;20053;-64
2023/12/14 14:18:23;;;;;;;21.33;9.47;;;;;;;;;;5035249;28;20083;-64
2023/12/14 14:20:48;;;;;;;22.10;9.17;;;;;;;;;;5036711;28;20041;-64